createdAt,value
2022-09-10T00:00:05.211Z,101071.63
2022-09-10T00:02:39.232Z,101067.56
2022-09-10T00:05:09.975Z,101063.25
2022-09-10T00:07:38.085Z,101062.25
2022-09-10T00:10:06.439Z,101062.38
2022-09-10T00:12:35.939Z,101058.16
2022-09-10T00:15:06.253Z,101065.09
2022-09-10T00:17:34.218Z,101058.97
2022-09-10T00:20:02.423Z,101052.25
2022-09-10T00:22:30.411Z,101049.66
2022-09-10T00:24:59.602Z,101044.59
2022-09-10T00:27:27.968Z,101037.63
2022-09-10T00:29:56.235Z,101037.75
2022-09-10T00:32:25.474Z,101031.78
2022-09-10T00:34:55.247Z,101031.84
2022-09-10T00:37:23.998Z,101028.38
2022-09-10T00:39:52.174Z,101024.91
2022-09-10T00:42:20.194Z,101019.72
2022-09-10T00:45:00.461Z,101018.94
2022-09-10T00:47:32.197Z,101018.22
2022-09-10T00:50:05.518Z,101020.59
2022-09-10T00:52:39.378Z,101017.75
2022-09-10T00:55:09.029Z,101013.44
2022-09-10T00:57:37.346Z,101016.78
2022-09-10T01:00:10.277Z,101016.63
2022-09-10T01:02:39.723Z,101008.19
2022-09-10T01:05:10.117Z,101011.09
2022-09-10T01:07:39.146Z,101012.88
2022-09-10T01:10:10.031Z,101009.38
2022-09-10T01:12:51.525Z,101009.41
2022-09-10T01:15:24.612Z,101014.63
2022-09-10T01:18:06.518Z,101009.97
2022-09-10T01:21:02.804Z,101015.31
2022-09-10T01:24:00.450Z,101013.00
2022-09-10T01:26:39.000Z,101010.47
2022-09-10T01:29:11.879Z,100999.28
2022-09-10T01:31:41.000Z,100991.56
2022-09-10T01:34:18.826Z,100985.63
2022-09-10T01:36:50.394Z,100986.56
2022-09-10T01:39:19.493Z,100992.34
2022-09-10T01:41:49.043Z,100995.84
2022-09-10T01:44:48.931Z,100997.59
2022-09-10T01:47:33.595Z,101001.16
2022-09-10T01:50:22.493Z,100996.94
2022-09-10T01:52:59.134Z,101002.19
2022-09-10T01:55:35.541Z,100998.75
2022-09-10T01:58:16.534Z,101014.34
2022-09-10T02:00:55.304Z,101003.97
2022-09-10T02:03:25.916Z,101003.06
2022-09-10T02:05:54.927Z,100999.53
2022-09-10T02:08:26.113Z,100999.59
2022-09-10T02:10:55.758Z,101005.72
2022-09-10T02:13:26.990Z,101001.41
2022-09-10T02:16:17.490Z,101011.00
2022-09-10T02:18:47.712Z,101017.91
2022-09-10T02:21:15.954Z,101024.75
2022-09-10T02:23:46.130Z,101035.13
2022-09-10T02:26:15.710Z,101041.09
2022-09-10T02:28:44.550Z,101045.91
2022-09-10T02:31:14.930Z,101041.56
2022-09-10T02:33:43.234Z,101023.28
2022-09-10T02:36:12.501Z,101017.94
2022-09-10T02:38:40.399Z,101016.25
2022-09-10T02:41:09.758Z,101022.31
2022-09-10T02:43:38.147Z,101018.97
2022-09-10T02:46:07.357Z,101018.13
2022-09-10T02:48:39.986Z,101010.31
2022-09-10T02:51:09.306Z,101008.66
2022-09-10T02:53:38.586Z,101011.25
2022-09-10T02:56:08.735Z,101004.41
2022-09-10T02:58:37.703Z,101013.13
2022-09-10T03:01:08.652Z,101014.03
2022-09-10T03:03:39.116Z,101013.25
2022-09-10T03:06:07.490Z,101002.91
2022-09-10T03:08:35.805Z,101001.28
2022-09-10T03:11:04.850Z,100997.72
2022-09-10T03:13:34.511Z,100998.53
2022-09-10T03:16:04.144Z,100995.00
2022-09-10T03:18:35.304Z,100994.09
2022-09-10T03:21:13.122Z,100990.59
2022-09-10T03:23:41.116Z,100992.91
2022-09-10T03:26:09.679Z,100989.47
2022-09-10T03:28:38.661Z,100989.38
2022-09-10T03:31:09.498Z,100980.56
2022-09-10T03:33:42.799Z,100986.72
2022-09-10T03:36:13.192Z,100993.56
2022-09-10T03:38:42.906Z,100985.03
2022-09-10T03:41:11.491Z,100995.50
2022-09-10T03:43:39.839Z,100987.72
2022-09-10T03:46:11.875Z,100986.94
2022-09-10T03:48:43.179Z,100983.44
2022-09-10T03:51:12.587Z,100985.25
2022-09-10T03:53:40.806Z,100985.41
2022-09-10T03:56:10.146Z,100986.34
2022-09-10T03:58:38.404Z,100994.94
2022-09-10T04:01:06.978Z,100992.19
2022-09-10T04:03:38.225Z,100987.19
2022-09-10T04:06:06.373Z,100995.00
2022-09-10T04:08:36.417Z,100997.69
2022-09-10T04:11:07.868Z,100988.09
2022-09-10T04:13:35.714Z,100986.34
2022-09-10T04:16:04.732Z,100991.59
2022-09-10T04:18:35.050Z,100994.91
2022-09-10T04:21:04.468Z,100998.34
2022-09-10T04:23:33.198Z,100994.66
2022-09-10T04:26:12.429Z,100986.16
2022-09-10T04:28:40.691Z,100986.13
2022-09-10T04:31:09.093Z,100993.97
2022-09-10T04:33:37.280Z,100989.78
2022-09-10T04:36:07.126Z,100984.56
2022-09-10T04:38:41.634Z,100981.34
2022-09-10T04:41:11.198Z,100980.50
2022-09-10T04:43:40.755Z,100978.91
2022-09-10T04:46:08.683Z,100978.13
2022-09-10T04:48:40.184Z,100973.81
2022-09-10T04:51:17.556Z,100972.06
2022-09-10T04:53:54.735Z,100971.25
2022-09-10T04:56:28.341Z,100976.28
2022-09-10T04:58:56.300Z,100973.56
2022-09-10T05:01:24.374Z,100968.34
2022-09-10T05:03:54.114Z,100967.50
2022-09-10T05:06:23.232Z,100964.03
2022-09-10T05:08:51.479Z,100971.81
2022-09-10T05:11:20.271Z,100970.72
2022-09-10T05:13:49.780Z,100979.13
2022-09-10T05:16:22.019Z,100977.31
2022-09-10T05:18:49.924Z,100978.69
2022-09-10T05:21:18.530Z,100971.69
2022-09-10T05:23:46.967Z,100974.31
2022-09-10T05:26:14.924Z,100979.91
2022-09-10T05:28:43.444Z,100973.44
2022-09-10T05:31:17.306Z,100977.84
2022-09-10T05:33:46.434Z,100983.47
2022-09-10T05:36:14.921Z,100981.16
2022-09-10T05:38:45.374Z,100987.66
2022-09-10T05:41:13.947Z,100986.41
2022-09-10T05:43:46.603Z,100993.41
2022-09-10T05:46:16.066Z,100997.38
2022-09-10T05:48:47.642Z,100983.81
2022-09-10T05:51:15.925Z,100989.91
2022-09-10T05:53:44.943Z,100995.78
2022-09-10T05:56:12.787Z,100996.03
2022-09-10T05:58:45.044Z,100998.09
2022-09-10T06:01:16.094Z,101001.94
2022-09-10T06:03:44.972Z,100997.63
2022-09-10T06:06:13.022Z,101002.59
2022-09-10T06:08:46.154Z,101008.66
2022-09-10T06:11:21.775Z,101014.91
2022-09-10T06:13:50.667Z,101021.56
2022-09-10T06:16:21.537Z,101022.25
2022-09-10T06:18:49.619Z,101028.97
2022-09-10T06:21:28.151Z,101038.03
2022-09-10T06:23:57.769Z,101048.50
2022-09-10T06:26:27.578Z,101042.09
2022-09-10T06:28:59.182Z,101047.59
2022-09-10T06:31:28.776Z,101054.06
2022-09-10T06:33:57.613Z,101049.00
2022-09-10T06:36:29.524Z,101054.56
2022-09-10T06:38:58.082Z,101058.25
2022-09-10T06:41:26.955Z,101055.47
2022-09-10T06:44:01.451Z,101055.13
2022-09-10T06:47:25.864Z,101061.88
2022-09-10T06:49:42.074Z,101065.38
2022-09-10T06:52:13.008Z,101061.69
2022-09-10T06:54:41.007Z,101054.47
2022-09-10T06:57:20.311Z,101057.31
2022-09-10T06:59:48.216Z,101063.72
2022-09-10T07:02:17.634Z,101061.59
2022-09-10T07:04:46.200Z,101054.69
2022-09-10T07:07:15.002Z,101059.16
2022-09-10T07:09:43.198Z,101051.00
2022-09-10T07:12:15.202Z,101035.63
2022-09-10T07:14:43.302Z,101042.31
2022-09-10T07:17:12.643Z,101034.53
2022-09-10T07:19:42.053Z,101034.03
2022-09-10T07:22:20.733Z,101026.97
2022-09-10T07:24:50.262Z,101029.19
2022-09-10T07:27:28.882Z,101021.06
2022-09-10T07:29:58.426Z,101012.47
2022-09-10T07:32:26.579Z,101008.06
2022-09-10T07:35:07.472Z,101004.31
2022-09-10T07:37:35.455Z,100997.09
2022-09-10T07:40:04.697Z,100994.19
2022-09-10T07:42:32.790Z,100996.13
2022-09-10T07:45:00.699Z,100974.09
2022-09-10T07:47:28.550Z,100968.78
2022-09-10T07:49:56.915Z,100974.50
2022-09-10T07:52:26.171Z,100974.03
2022-09-10T07:54:56.126Z,100966.91
2022-09-10T07:57:24.015Z,100975.78
2022-09-10T07:59:51.973Z,100973.22
2022-09-10T08:02:25.776Z,100975.91
2022-09-10T08:04:58.611Z,100978.97
2022-09-10T08:07:28.965Z,100973.47
2022-09-10T08:09:57.210Z,100971.72
2022-09-10T08:12:25.913Z,100972.41
2022-09-10T08:14:56.869Z,100964.13
2022-09-10T08:17:25.289Z,100953.06
2022-09-10T08:19:53.799Z,100960.13
2022-09-10T08:22:21.723Z,100969.66
2022-09-10T08:24:57.171Z,100960.59
2022-09-10T08:27:30.231Z,100966.66
2022-09-10T08:29:58.356Z,100965.84
2022-09-10T08:32:27.701Z,100961.66
2022-09-10T08:34:55.881Z,100960.13
2022-09-10T08:37:23.852Z,100958.16
2022-09-10T08:39:51.790Z,100948.91
2022-09-10T08:42:27.020Z,100953.88
2022-09-10T08:44:57.196Z,100952.69
2022-09-10T08:47:34.403Z,100951.16
2022-09-10T08:50:13.710Z,100956.72
2022-09-10T08:52:46.119Z,100956.28
2022-09-10T08:55:25.770Z,100953.97
2022-09-10T08:57:59.312Z,100952.72
2022-09-10T09:00:28.553Z,100943.22
2022-09-10T09:03:02.215Z,100945.19
2022-09-10T09:05:40.327Z,100940.88
2022-09-10T09:08:13.140Z,100940.00
2022-09-10T09:10:42.977Z,100938.22
2022-09-10T09:13:49.378Z,100933.19
2022-09-10T09:16:28.791Z,100938.69
2022-09-10T09:19:02.686Z,100940.00
2022-09-10T09:21:39.763Z,100945.78
2022-09-10T09:24:15.788Z,100950.69
2022-09-10T09:26:51.377Z,100952.41
2022-09-10T09:29:24.748Z,100958.81
2022-09-10T09:31:56.399Z,100952.81
2022-09-10T09:34:29.719Z,100961.56
2022-09-10T09:36:58.842Z,100963.69
2022-09-10T09:39:31.458Z,100963.91
2022-09-10T09:42:05.780Z,100971.34
2022-09-10T09:44:40.188Z,100974.63
2022-09-10T09:47:08.797Z,100970.81
2022-09-10T09:49:39.903Z,100978.72
2022-09-10T09:52:18.406Z,100983.03
2022-09-10T09:55:13.680Z,100981.03
2022-09-10T09:57:38.334Z,100974.09
2022-09-10T10:00:36.676Z,100976.91
2022-09-10T10:03:08.201Z,100985.81
2022-09-10T10:05:37.279Z,100992.31
2022-09-10T10:08:05.105Z,100997.88
2022-09-10T10:10:33.052Z,100997.03
2022-09-10T10:15:42.074Z,100984.97
2022-09-10T10:18:31.713Z,100977.03
2022-09-10T10:21:14.173Z,100977.75
2022-09-10T10:23:42.334Z,100977.97
2022-09-10T10:26:26.078Z,100982.44
2022-09-10T10:28:58.596Z,100984.53
2022-09-10T10:31:34.131Z,100988.56
2022-09-10T10:34:15.092Z,100986.41
2022-09-10T10:36:50.322Z,100975.88
2022-09-10T10:39:24.368Z,100978.59
2022-09-10T10:41:59.665Z,100968.22
2022-09-10T10:44:38.276Z,100963.69
2022-09-10T10:47:24.227Z,100966.59
2022-09-10T10:50:03.306Z,100972.97
2022-09-10T10:52:40.527Z,100974.50
2022-09-10T10:55:17.304Z,100974.47
2022-09-10T10:58:16.734Z,100977.13
2022-09-10T11:00:48.042Z,100979.13
2022-09-10T11:03:21.696Z,100983.81
2022-09-10T11:05:51.475Z,100985.59
2022-09-10T11:08:23.263Z,100981.56
2022-09-10T11:10:54.917Z,100978.06
2022-09-10T11:13:25.806Z,100982.09
2022-09-10T11:15:59.343Z,100986.69
2022-09-10T11:18:33.299Z,100989.53
2022-09-10T11:21:06.198Z,100983.78
2022-09-10T11:23:39.810Z,100982.50
2022-09-10T11:26:10.701Z,100989.69
2022-09-10T11:28:43.531Z,100986.31
2022-09-10T11:31:16.359Z,100987.03
2022-09-10T11:33:53.382Z,100987.41
2022-09-10T11:36:25.117Z,100983.59
2022-09-10T11:39:05.254Z,100995.31
2022-09-10T11:41:34.258Z,100986.44
2022-09-10T11:44:08.333Z,100977.50
2022-09-10T11:49:11.727Z,100982.66
2022-09-10T11:51:41.013Z,100977.03
2022-09-10T11:54:14.032Z,100981.81
2022-09-10T11:56:53.926Z,100978.69
2022-09-10T11:59:34.877Z,100970.63
2022-09-10T12:02:32.588Z,100984.31
2022-09-10T12:05:05.138Z,100976.94
2022-09-10T12:07:37.712Z,100975.16
2022-09-10T12:10:14.647Z,100984.66
2022-09-10T12:12:44.999Z,100992.59
2022-09-10T12:15:20.192Z,100971.84
2022-09-10T12:17:51.202Z,100975.84
2022-09-10T12:22:54.661Z,100988.44
2022-09-10T12:25:33.046Z,100993.13
2022-09-10T12:28:05.416Z,100990.59
2022-09-10T12:30:52.630Z,100975.63
2022-09-10T12:34:00.609Z,100974.25
2022-09-10T12:37:18.093Z,100979.97
2022-09-10T12:39:48.408Z,100975.84
2022-09-10T12:42:29.588Z,100974.06
2022-09-10T12:44:57.598Z,100964.16
2022-09-10T12:47:50.129Z,100963.69
2022-09-10T12:50:45.987Z,100973.00
2022-09-10T12:53:54.997Z,100971.28
2022-09-10T12:56:42.123Z,100956.19
2022-09-10T12:59:34.659Z,100952.72
2022-09-10T13:02:02.879Z,100945.81
2022-09-10T13:04:34.616Z,100951.50
2022-09-10T13:07:05.066Z,100955.97
2022-09-10T13:09:35.187Z,100950.63
2022-09-10T13:12:08.139Z,100952.75
2022-09-10T13:14:38.235Z,100939.19
2022-09-10T13:17:06.523Z,100934.63
2022-09-10T13:19:52.946Z,100941.19
2022-09-10T13:23:04.014Z,100944.88
2022-09-10T13:25:36.892Z,100952.94
2022-09-10T13:28:45.112Z,100947.97
2022-09-10T13:31:25.667Z,100942.38
2022-09-10T13:34:14.134Z,100930.53
2022-09-10T13:36:48.511Z,100938.63
2022-09-10T13:39:43.359Z,100933.56
2022-09-10T13:42:20.689Z,100942.28
2022-09-10T13:45:14.178Z,100940.47
2022-09-10T13:47:47.196Z,100941.97
2022-09-10T13:50:18.407Z,100941.28
2022-09-10T13:52:48.365Z,100945.03
2022-09-10T13:55:19.663Z,100943.59
2022-09-10T13:57:49.853Z,100936.81
2022-09-10T14:00:24.265Z,100940.31
2022-09-10T14:02:53.848Z,100945.91
2022-09-10T14:05:34.741Z,100938.03
2022-09-10T14:08:06.377Z,100940.09
2022-09-10T14:10:38.698Z,100936.53
2022-09-10T14:13:07.672Z,100940.75
2022-09-10T14:15:40.007Z,100951.31
2022-09-10T14:18:11.025Z,100970.34
2022-09-10T14:20:40.296Z,100976.69
2022-09-10T14:23:13.615Z,100980.75
2022-09-10T14:25:43.332Z,100981.88
2022-09-10T14:28:24.954Z,100981.94
2022-09-10T14:31:18.222Z,100992.19
2022-09-10T14:33:45.982Z,101000.47
2022-09-10T14:36:16.139Z,100998.91
2022-09-10T14:38:45.814Z,101008.28
2022-09-10T14:41:21.715Z,101003.72
2022-09-10T14:43:50.180Z,101016.47
2022-09-10T14:46:50.545Z,101016.78
2022-09-10T14:49:20.064Z,101030.94
2022-09-10T14:51:48.028Z,101032.22
2022-09-10T14:54:15.896Z,101034.84
2022-09-10T14:56:46.101Z,101040.59
2022-09-10T14:59:16.231Z,101057.34
2022-09-10T15:01:45.529Z,101061.81
2022-09-10T15:04:16.742Z,101074.50
2022-09-10T15:06:44.951Z,101088.28
2022-09-10T15:09:13.730Z,101093.75
2022-09-10T15:11:48.821Z,101093.63
2022-09-10T15:14:17.102Z,101094.72
2022-09-10T15:16:44.934Z,101101.47
2022-09-10T15:19:12.791Z,101115.19
2022-09-10T15:21:42.891Z,101117.91
2022-09-10T15:24:12.526Z,101117.38
2022-09-10T15:26:40.423Z,101124.13
2022-09-10T15:29:08.236Z,101127.44
2022-09-10T15:31:36.581Z,101134.41
2022-09-10T15:34:04.986Z,101139.28
2022-09-10T15:36:33.026Z,101134.56
2022-09-10T15:39:03.457Z,101128.94
2022-09-10T15:41:31.959Z,101132.63
2022-09-10T15:44:00.153Z,101135.16
2022-09-10T15:46:28.270Z,101147.44
2022-09-10T15:48:59.401Z,101148.72
2022-09-10T15:51:27.583Z,101153.50
2022-09-10T15:53:55.609Z,101161.16
2022-09-10T15:56:26.963Z,101161.44
2022-09-10T15:58:56.358Z,101155.69
2022-09-10T16:01:25.309Z,101160.41
2022-09-10T16:03:56.071Z,101159.91
2022-09-10T16:06:25.327Z,101152.91
2022-09-10T16:08:56.551Z,101144.78
2022-09-10T16:11:26.256Z,101133.44
2022-09-10T16:13:54.994Z,101138.00
2022-09-10T16:16:24.401Z,101137.72
2022-09-10T16:18:53.836Z,101134.16
2022-09-10T16:21:23.501Z,101110.97
2022-09-10T16:23:52.541Z,101091.25
2022-09-10T16:26:22.864Z,101082.66
2022-09-10T16:28:52.660Z,101053.50
2022-09-10T16:31:23.195Z,101025.09
2022-09-10T16:33:54.689Z,101020.31
2022-09-10T16:36:23.500Z,101014.25
2022-09-10T16:38:53.962Z,101017.16
2022-09-10T16:41:22.321Z,101011.44
2022-09-10T16:43:50.246Z,101022.94
2022-09-10T16:46:20.175Z,101032.78
2022-09-10T16:48:48.398Z,101028.13
2022-09-10T16:51:17.983Z,101020.47
2022-09-10T16:57:46.989Z,101025.09
2022-09-10T17:00:16.407Z,101042.03
2022-09-10T17:02:45.759Z,101054.19
2022-09-10T17:05:13.622Z,101079.69
2022-09-10T17:07:41.434Z,101096.00
2022-09-10T17:10:10.071Z,101109.47
2022-09-10T17:12:38.015Z,101125.81
2022-09-10T17:15:06.393Z,101123.25
2022-09-10T17:17:34.260Z,101140.47
2022-09-10T17:20:03.942Z,101143.06
2022-09-10T17:22:32.002Z,101157.63
2022-09-10T17:24:59.973Z,101172.50
2022-09-10T17:27:30.443Z,101180.75
2022-09-10T17:29:58.290Z,101185.75
2022-09-10T17:32:26.440Z,101193.00
2022-09-10T17:34:55.110Z,101203.50
2022-09-10T17:37:24.463Z,101213.97
2022-09-10T17:39:52.566Z,101219.56
2022-09-10T17:42:20.470Z,101221.22
2022-09-10T17:44:49.409Z,101229.69
2022-09-10T17:47:17.202Z,101240.84
2022-09-10T17:49:45.988Z,101247.06
2022-09-10T17:52:14.620Z,101255.41
2022-09-10T17:54:44.204Z,101261.06
2022-09-10T17:57:12.074Z,101269.19
2022-09-10T17:59:40.637Z,101266.22
2022-09-10T18:02:08.657Z,101265.25
2022-09-10T18:04:36.589Z,101273.44
2022-09-10T18:07:04.583Z,101270.22
2022-09-10T18:09:32.483Z,101271.88
2022-09-10T18:12:02.646Z,101271.56
2022-09-10T18:14:31.084Z,101267.69
2022-09-10T18:16:59.764Z,101272.97
2022-09-10T18:19:27.769Z,101275.72
2022-09-10T18:21:55.603Z,101282.69
2022-09-10T18:24:24.966Z,101278.19
2022-09-10T18:26:54.761Z,101294.53
2022-09-10T18:29:25.373Z,101287.09
2022-09-10T18:31:55.626Z,101280.41
2022-09-10T18:34:26.918Z,101278.47
2022-09-10T18:36:57.527Z,101282.22
2022-09-10T18:39:26.275Z,101290.16
2022-09-10T18:41:54.693Z,101284.66
2022-09-10T18:44:28.615Z,101281.22
2022-09-10T18:46:59.361Z,101279.81
2022-09-10T18:49:29.203Z,101289.47
2022-09-10T18:51:59.167Z,101284.00
2022-09-10T18:54:29.626Z,101285.84
2022-09-10T18:56:58.874Z,101285.59
2022-09-10T18:59:29.903Z,101294.38
2022-09-10T19:01:57.917Z,101293.66
2022-09-10T19:04:28.872Z,101285.78
2022-09-10T19:06:59.225Z,101280.50
2022-09-10T19:09:29.674Z,101286.22
2022-09-10T19:12:01.199Z,101283.50
2022-09-10T19:14:35.681Z,101285.00
2022-09-10T19:17:06.373Z,101295.50
2022-09-10T19:19:36.341Z,101295.16
2022-09-10T19:22:07.150Z,101291.69
2022-09-10T19:24:54.157Z,101302.88
2022-09-10T19:27:26.159Z,101291.47
2022-09-10T19:29:58.500Z,101300.19
2022-09-10T19:32:29.728Z,101298.44
2022-09-10T19:35:01.211Z,101294.78
2022-09-10T19:37:32.201Z,101295.59
2022-09-10T19:40:03.815Z,101295.38
2022-09-10T19:42:34.905Z,101301.56
2022-09-10T19:45:10.187Z,101293.16
2022-09-10T19:47:38.378Z,101300.84
2022-09-10T19:50:10.238Z,101296.34
2022-09-10T19:52:40.870Z,101300.78
2022-09-10T19:55:12.853Z,101298.22
2022-09-10T19:57:43.121Z,101301.75
2022-09-10T20:00:36.189Z,101309.16
2022-09-10T20:03:07.671Z,101310.03
2022-09-10T20:05:38.758Z,101311.78
2022-09-10T20:08:08.227Z,101305.22
2022-09-10T20:10:38.858Z,101298.44
2022-09-10T20:13:08.959Z,101300.19
2022-09-10T20:15:45.322Z,101297.72
2022-09-10T20:18:15.740Z,101294.00
2022-09-10T20:20:46.678Z,101299.28
2022-09-10T20:23:18.248Z,101294.91
2022-09-10T20:25:47.065Z,101298.66
2022-09-10T20:28:16.825Z,101297.72
2022-09-10T20:30:49.266Z,101299.34
2022-09-10T20:33:17.264Z,101304.88
2022-09-10T20:35:47.609Z,101300.31
2022-09-10T20:38:17.632Z,101304.00
2022-09-10T20:40:47.385Z,101309.63
2022-09-10T20:43:17.079Z,101308.59
2022-09-10T20:45:49.349Z,101309.47
2022-09-10T20:48:17.493Z,101307.03
2022-09-10T20:50:53.227Z,101316.78
2022-09-10T20:53:24.192Z,101318.81
2022-09-10T20:56:02.542Z,101311.03
2022-09-10T20:58:36.580Z,101312.13
2022-09-10T21:01:11.263Z,101311.38
2022-09-10T21:03:42.458Z,101315.13
2022-09-10T21:06:13.431Z,101303.53
2022-09-10T21:08:43.623Z,101301.25
2022-09-10T21:11:15.158Z,101311.72
2022-09-10T21:13:47.624Z,101310.88
2022-09-10T21:16:19.396Z,101319.13
2022-09-10T21:18:54.581Z,101310.47
2022-09-10T21:21:27.878Z,101311.69
2022-09-10T21:23:59.285Z,101324.75
2022-09-10T21:26:31.121Z,101323.31
2022-09-10T21:29:03.634Z,101321.78
2022-09-10T21:31:36.610Z,101314.00
2022-09-10T21:34:07.548Z,101324.56
2022-09-10T21:36:41.041Z,101315.88
2022-09-10T21:39:16.242Z,101316.91
2022-09-10T21:41:48.146Z,101316.34
2022-09-10T21:44:20.341Z,101313.06
2022-09-10T21:46:52.782Z,101310.63
2022-09-10T21:49:23.517Z,101312.38
2022-09-10T21:51:53.448Z,101313.25
2022-09-10T21:54:24.253Z,101314.06
2022-09-10T21:56:55.037Z,101311.59
2022-09-10T21:59:26.659Z,101307.41
2022-09-10T22:01:58.963Z,101316.97
2022-09-10T22:04:30.151Z,101314.97
2022-09-10T22:07:04.599Z,101317.69
2022-09-10T22:09:35.464Z,101319.28
2022-09-10T22:12:06.618Z,101322.63
2022-09-10T22:14:37.525Z,101327.06
2022-09-10T22:17:09.831Z,101323.63
2022-09-10T22:19:40.763Z,101333.97
2022-09-10T22:22:12.167Z,101335.75
2022-09-10T22:24:43.046Z,101338.19
2022-09-10T22:27:13.911Z,101347.72
2022-09-10T22:29:45.283Z,101357.31
2022-09-10T22:32:17.518Z,101349.38
2022-09-10T22:34:48.956Z,101353.63
2022-09-10T22:37:19.813Z,101352.16
2022-09-10T22:39:50.763Z,101353.00
2022-09-10T22:42:21.695Z,101360.75
2022-09-10T22:44:52.965Z,101364.19
2022-09-10T22:47:25.303Z,101367.75
2022-09-10T22:49:57.291Z,101360.44
2022-09-10T22:52:28.168Z,101363.28
2022-09-10T22:54:59.076Z,101369.84
2022-09-10T22:57:30.228Z,101379.72
2022-09-10T23:00:01.159Z,101379.56
2022-09-10T23:02:33.427Z,101388.13
2022-09-10T23:05:06.544Z,101388.13
2022-09-10T23:07:37.501Z,101390.72
2022-09-10T23:10:09.036Z,101379.59
2022-09-10T23:12:39.950Z,101379.69
2022-09-10T23:15:11.643Z,101385.72
2022-09-10T23:17:41.682Z,101386.59
2022-09-10T23:20:12.833Z,101391.72
2022-09-10T23:22:43.713Z,101389.81
2022-09-10T23:25:14.655Z,101395.84
2022-09-10T23:27:45.816Z,101398.47
2022-09-10T23:30:16.144Z,101390.66
2022-09-10T23:32:46.484Z,101398.97
2022-09-10T23:35:17.826Z,101396.59
2022-09-10T23:37:48.752Z,101399.97
2022-09-10T23:40:23.164Z,101402.69
2022-09-10T23:42:58.138Z,101410.34
2022-09-10T23:45:29.058Z,101401.63
2022-09-10T23:48:01.356Z,101409.09
2022-09-10T23:50:31.879Z,101403.09
2022-09-10T23:53:02.920Z,101404.88
2022-09-10T23:55:36.778Z,101404.75
2022-09-10T23:58:07.776Z,101404.03
